Weather at Kepulauan Riau / Tambelan Airport

Public forecast

Using degrees Celsius for public forecast. Weather courtesy of forecast.io.

Closest aviation weather report (METAR) to Kepulauan Riau / Tambelan Airport

Closest report is Supadio Airport, 129.6 nm (240.1 km) ESE.

2024/05/26 18:00 (retrieved 44 minutes ago)

WIOO 261800Z AUTO VRB02KT 9999 SCT160 BKN180 OVC200 26/26 Q1008

Closest aviation forecast (TAF) to Kepulauan Riau / Tambelan Airport

Closest forecast is Kuching International Airport, 170.3 nm (315.5 km) E.

2024/05/26 18:10 (retrieved 34 minutes ago)

TAF WBGG 261700Z 2618/2718 VRB03KT 9999 SCT016